createdAt,value
2018-06-12T00:03:05.440Z,99.90
2018-06-12T00:07:49.828Z,99.90
2018-06-12T00:12:34.286Z,99.90
2018-06-12T00:17:18.781Z,99.90
2018-06-12T00:22:03.075Z,99.90
2018-06-12T00:26:47.443Z,99.90
2018-06-12T00:31:31.916Z,99.90
2018-06-12T00:36:16.600Z,99.90
2018-06-12T00:41:01.016Z,99.90
2018-06-12T00:45:46.355Z,99.90
2018-06-12T00:50:30.859Z,99.90
2018-06-12T00:55:15.254Z,99.90
2018-06-12T00:59:59.649Z,99.90
2018-06-12T01:04:44.090Z,99.90
2018-06-12T01:09:28.454Z,99.90
2018-06-12T01:14:12.978Z,99.90
2018-06-12T01:18:57.506Z,99.90
2018-06-12T01:23:42.182Z,99.90
2018-06-12T01:28:26.883Z,99.90
2018-06-12T01:33:11.587Z,99.90
2018-06-12T01:37:56.217Z,99.90
2018-06-12T01:42:41.358Z,99.90
2018-06-12T01:47:25.991Z,99.90
2018-06-12T01:52:10.582Z,99.90
2018-06-12T01:56:55.043Z,99.90
2018-06-12T02:01:39.708Z,99.90
2018-06-12T02:06:24.275Z,99.90
2018-06-12T02:16:20.696Z,99.90
2018-06-12T02:21:05.092Z,99.90
2018-06-12T02:25:49.560Z,99.90
2018-06-12T02:30:34.134Z,99.90
2018-06-12T02:35:18.664Z,99.90
2018-06-12T02:40:03.051Z,99.90
2018-06-12T02:44:47.477Z,99.90
2018-06-12T02:49:31.890Z,99.90
2018-06-12T02:54:16.340Z,99.90
2018-06-12T02:59:00.942Z,99.90
2018-06-12T03:03:45.312Z,99.90
2018-06-12T03:08:29.828Z,99.90
2018-06-12T03:13:14.325Z,99.90
2018-06-12T03:17:58.848Z,99.90
2018-06-12T03:22:43.240Z,99.90
2018-06-12T03:27:27.616Z,99.90
2018-06-12T03:32:12.045Z,99.90
2018-06-12T03:36:56.582Z,99.90
2018-06-12T03:41:41.156Z,99.90
2018-06-12T03:46:26.584Z,99.90
2018-06-12T03:51:11.004Z,99.90
2018-06-12T03:55:55.454Z,99.90
2018-06-12T04:00:39.919Z,99.90
2018-06-12T04:05:24.370Z,99.90
2018-06-12T04:10:08.771Z,99.90
2018-06-12T04:14:53.280Z,99.90
2018-06-12T04:19:37.752Z,99.90
2018-06-12T04:24:22.101Z,99.90
2018-06-12T04:29:06.492Z,99.90
2018-06-12T04:33:51.040Z,99.90
2018-06-12T04:38:35.661Z,99.90
2018-06-12T04:43:20.246Z,99.90
2018-06-12T04:48:04.591Z,99.90
2018-06-12T04:52:48.946Z,99.90
2018-06-12T04:57:33.413Z,99.90
2018-06-12T05:02:17.781Z,99.90
2018-06-12T05:07:02.172Z,99.90
2018-06-12T05:11:46.507Z,99.90
2018-06-12T05:16:31.046Z,99.90
2018-06-12T05:21:15.695Z,99.90
2018-06-12T05:26:00.153Z,99.90
2018-06-12T05:31:00.741Z,99.90
2018-06-12T05:35:45.079Z,99.90
2018-06-12T05:40:29.430Z,99.90
2018-06-12T05:49:58.964Z,99.90
2018-06-12T05:54:43.382Z,99.90
2018-06-12T05:59:27.813Z,99.90
2018-06-12T06:04:12.206Z,99.90
2018-06-12T06:13:40.570Z,99.90
2018-06-12T06:18:25.184Z,99.90
2018-06-12T06:23:09.498Z,99.90
2018-06-12T06:27:54.971Z,99.90
2018-06-12T06:32:39.565Z,99.90
2018-06-12T06:37:23.901Z,99.90
2018-06-12T06:42:08.381Z,99.90
2018-06-12T06:46:52.837Z,99.90
2018-06-12T06:51:37.163Z,99.90
2018-06-12T06:56:21.985Z,99.90
2018-06-12T07:01:08.070Z,99.90
2018-06-12T07:05:52.446Z,99.90
2018-06-12T07:10:36.908Z,99.90
2018-06-12T07:15:21.323Z,99.90
2018-06-12T07:20:05.812Z,99.90
2018-06-12T07:24:50.275Z,99.90
2018-06-12T07:29:34.748Z,99.90
2018-06-12T07:34:19.238Z,99.90
2018-06-12T07:39:04.961Z,99.90
2018-06-12T07:43:49.337Z,99.90
2018-06-12T07:48:33.771Z,99.90
2018-06-12T07:53:18.243Z,99.90
2018-06-12T07:58:03.097Z,99.90
2018-06-12T08:02:47.545Z,99.90
2018-06-12T08:07:31.950Z,99.90
2018-06-12T08:12:16.377Z,99.90
2018-06-12T08:17:00.946Z,99.90
2018-06-12T08:21:45.317Z,99.90
2018-06-12T08:26:30.026Z,99.90
2018-06-12T08:31:14.700Z,99.90
2018-06-12T08:35:59.364Z,99.90
2018-06-12T08:40:43.717Z,99.90
2018-06-12T08:45:28.162Z,99.90
2018-06-12T08:50:12.514Z,99.90
2018-06-12T08:54:56.982Z,99.90
2018-06-12T08:59:41.358Z,99.90
2018-06-12T09:04:25.750Z,99.90
2018-06-12T09:09:10.306Z,99.90
2018-06-12T09:13:54.617Z,99.90
2018-06-12T09:23:23.142Z,99.90
2018-06-12T09:28:07.524Z,99.90
2018-06-12T09:32:51.988Z,99.90
2018-06-12T09:37:36.453Z,99.90
2018-06-12T09:42:20.978Z,99.90
2018-06-12T09:47:05.437Z,99.90
2018-06-12T09:51:49.807Z,99.90
2018-06-12T09:56:34.126Z,99.90
2018-06-12T10:01:18.640Z,99.90
2018-06-12T10:06:03.016Z,99.90
2018-06-12T10:10:47.444Z,99.90
2018-06-12T10:15:31.905Z,99.90
2018-06-12T10:20:16.264Z,99.90
2018-06-12T10:25:00.709Z,99.90
2018-06-12T10:29:45.197Z,99.90
2018-06-12T10:34:29.747Z,99.90
2018-06-12T10:39:14.082Z,99.90
2018-06-12T10:43:58.530Z,99.90
2018-06-12T10:48:42.955Z,99.90
2018-06-12T10:53:27.399Z,99.90
2018-06-12T10:58:11.777Z,99.90
2018-06-12T11:02:56.208Z,99.90
2018-06-12T11:07:40.582Z,99.90
2018-06-12T11:12:24.996Z,99.90
2018-06-12T11:17:09.519Z,99.90
2018-06-12T11:21:54.207Z,99.90
2018-06-12T11:26:38.821Z,99.90
2018-06-12T11:31:23.306Z,99.90
2018-06-12T11:36:08.672Z,98.40
2018-06-12T11:40:53.154Z,99.30
2018-06-12T11:45:37.706Z,99.40
2018-06-12T11:50:22.107Z,97.00
2018-06-12T11:55:06.969Z,97.80
2018-06-12T11:59:51.636Z,98.20
2018-06-12T12:04:36.121Z,95.90
2018-06-12T12:09:20.571Z,96.70
2018-06-12T12:14:05.556Z,97.50
2018-06-12T12:18:49.980Z,99.00
2018-06-12T12:23:34.723Z,99.80
2018-06-12T12:28:19.157Z,96.20
2018-06-12T12:33:03.558Z,97.70
2018-06-12T12:37:48.033Z,97.20
2018-06-12T12:42:32.461Z,96.10
2018-06-12T12:47:16.848Z,94.70
2018-06-12T12:52:01.256Z,94.70
2018-06-12T12:56:45.866Z,93.60
2018-06-12T13:01:30.366Z,94.20
2018-06-12T13:06:14.824Z,93.70
2018-06-12T13:10:59.253Z,93.70
2018-06-12T13:15:43.956Z,94.00
2018-06-12T13:20:28.251Z,93.80
2018-06-12T13:25:12.820Z,96.10
2018-06-12T13:29:57.203Z,94.10
2018-06-12T13:34:41.581Z,94.90
2018-06-12T13:39:25.975Z,96.10
2018-06-12T13:44:10.573Z,96.00
2018-06-12T13:48:55.104Z,95.10
2018-06-12T13:53:39.475Z,96.20
2018-06-12T13:58:23.827Z,92.80
2018-06-12T14:03:08.346Z,94.50
2018-06-12T14:07:53.000Z,92.90
2018-06-12T14:12:37.919Z,91.20
2018-06-12T14:17:22.403Z,93.20
2018-06-12T14:22:07.015Z,94.10
2018-06-12T14:26:51.468Z,94.50
2018-06-12T14:31:36.006Z,93.70
2018-06-12T14:36:20.574Z,93.90
2018-06-12T14:41:05.020Z,92.40
2018-06-12T14:50:33.527Z,90.00
2018-06-12T14:55:18.009Z,91.10
2018-06-12T15:00:02.387Z,87.00
2018-06-12T15:04:46.800Z,87.20
2018-06-12T15:09:31.252Z,85.10
2018-06-12T15:14:15.768Z,85.70
2018-06-12T15:19:00.360Z,90.30
2018-06-12T15:23:44.772Z,88.60
2018-06-12T15:28:29.286Z,90.10
2018-06-12T15:33:13.686Z,89.20
2018-06-12T15:37:58.132Z,88.30
2018-06-12T15:42:42.515Z,86.50
2018-06-12T15:47:26.885Z,89.20
2018-06-12T15:52:11.375Z,84.80
2018-06-12T15:56:55.956Z,81.50
2018-06-12T16:01:40.498Z,82.50
2018-06-12T16:06:24.788Z,84.60
2018-06-12T16:11:09.215Z,82.50
2018-06-12T16:15:53.894Z,83.10
2018-06-12T16:20:38.325Z,83.30
2018-06-12T16:25:22.670Z,85.40
2018-06-12T16:30:07.145Z,86.90
2018-06-12T16:34:51.477Z,85.80
2018-06-12T16:39:35.895Z,87.60
2018-06-12T16:44:20.350Z,84.50
2018-06-12T16:49:04.759Z,82.80
2018-06-12T16:53:49.163Z,76.70
2018-06-12T16:58:33.542Z,76.20
2018-06-12T17:03:18.102Z,79.40
2018-06-12T17:08:02.514Z,77.10
2018-06-12T17:12:46.944Z,73.50
2018-06-12T17:17:31.373Z,73.30
2018-06-12T17:22:15.819Z,73.00
2018-06-12T17:27:00.626Z,70.50
2018-06-12T17:31:45.084Z,71.70
2018-06-12T17:36:29.574Z,71.30
2018-06-12T17:41:13.961Z,71.90
2018-06-12T17:45:58.490Z,74.40
2018-06-12T17:50:43.021Z,81.30
2018-06-12T17:55:27.621Z,86.80
2018-06-12T18:00:12.453Z,89.70
2018-06-12T18:04:57.103Z,91.40
2018-06-12T18:09:41.723Z,93.10
2018-06-12T18:14:26.130Z,94.90
2018-06-12T18:19:10.559Z,96.20
2018-06-12T18:23:55.111Z,96.90
2018-06-12T18:28:39.606Z,97.40
2018-06-12T18:33:23.998Z,98.60
2018-06-12T18:38:08.358Z,99.20
2018-06-12T18:42:52.775Z,98.60
2018-06-12T18:47:38.148Z,99.90
2018-06-12T18:52:29.462Z,99.90
2018-06-12T18:57:13.895Z,99.90
2018-06-12T19:01:58.343Z,99.90
2018-06-12T19:06:42.903Z,99.90
2018-06-12T19:11:27.274Z,99.90
2018-06-12T19:16:11.913Z,99.90
2018-06-12T19:20:56.481Z,99.90
2018-06-12T19:25:41.260Z,99.90
2018-06-12T19:30:25.847Z,99.90
2018-06-12T19:35:10.425Z,99.90
2018-06-12T19:39:55.084Z,99.90
2018-06-12T19:44:39.936Z,99.90
2018-06-12T19:49:24.428Z,99.90
2018-06-12T19:54:09.089Z,99.90
2018-06-12T19:58:53.838Z,99.90
2018-06-12T20:03:38.466Z,99.90
2018-06-12T20:08:23.072Z,99.90
2018-06-12T20:13:07.802Z,99.90
2018-06-12T20:17:52.444Z,99.90
2018-06-12T20:22:36.955Z,99.90
2018-06-12T20:27:21.601Z,99.90
2018-06-12T20:32:06.029Z,99.90
2018-06-12T20:36:50.743Z,99.90
2018-06-12T20:41:35.603Z,99.90
2018-06-12T20:46:20.182Z,99.90
2018-06-12T20:51:04.793Z,99.90
2018-06-12T20:55:49.411Z,99.90
2018-06-12T21:00:33.959Z,99.90
2018-06-12T21:05:19.607Z,99.90
2018-06-12T21:10:04.555Z,99.90
2018-06-12T21:14:49.230Z,99.90
2018-06-12T21:19:33.731Z,99.90
2018-06-12T21:24:18.388Z,99.90
2018-06-12T21:29:02.919Z,99.90
2018-06-12T21:33:47.460Z,99.90
2018-06-12T21:38:32.163Z,99.90
2018-06-12T21:43:16.726Z,99.90
2018-06-12T21:48:01.286Z,99.90
2018-06-12T21:52:45.768Z,99.90
2018-06-12T21:57:30.390Z,99.90
2018-06-12T22:02:14.941Z,99.90
2018-06-12T22:07:00.129Z,99.90
2018-06-12T22:11:44.467Z,99.90
2018-06-12T22:16:28.892Z,99.90
2018-06-12T22:21:13.300Z,99.90
2018-06-12T22:25:57.836Z,99.90
2018-06-12T22:30:42.557Z,99.90
2018-06-12T22:35:27.027Z,99.90
2018-06-12T22:40:11.359Z,99.90
2018-06-12T22:44:55.764Z,99.90
2018-06-12T22:49:40.232Z,99.90
2018-06-12T22:54:24.641Z,99.90
2018-06-12T22:59:09.098Z,99.90
2018-06-12T23:03:53.562Z,99.90
2018-06-12T23:08:37.894Z,99.90
2018-06-12T23:13:22.267Z,99.90
2018-06-12T23:18:06.698Z,99.90
2018-06-12T23:22:51.239Z,99.90
2018-06-12T23:27:35.639Z,99.90
2018-06-12T23:32:19.945Z,99.90
2018-06-12T23:37:04.306Z,99.90
2018-06-12T23:41:48.715Z,99.90
2018-06-12T23:46:33.157Z,99.90
2018-06-12T23:51:17.650Z,99.90
2018-06-12T23:56:02.002Z,99.90
